sensor_id;sensor_type;location;lat;lon;timestamp;temperature;humidity
54124;DHT22;55741;53.252;5.788;2022-11-20T00:00:13;0.40;99.90
54124;DHT22;55741;53.252;5.788;2022-11-20T00:02:39;0.40;99.90
54124;DHT22;55741;53.252;5.788;2022-11-20T00:05:05;0.40;99.90
54124;DHT22;55741;53.252;5.788;2022-11-20T00:07:31;0.40;99.90
54124;DHT22;55741;53.252;5.788;2022-11-20T00:09:57;0.40;99.90
54124;DHT22;55741;53.252;5.788;2022-11-20T00:12:23;0.40;99.90
54124;DHT22;55741;53.252;5.788;2022-11-20T00:14:49;0.50;99.90
54124;DHT22;55741;53.252;5.788;2022-11-20T00:17:15;0.50;99.90
54124;DHT22;55741;53.252;5.788;2022-11-20T00:19:41;0.50;99.90
54124;DHT22;55741;53.252;5.788;2022-11-20T00:22:07;0.50;99.90
54124;DHT22;55741;53.252;5.788;2022-11-20T00:24:33;0.50;99.90
54124;DHT22;55741;53.252;5.788;2022-11-20T00:26:58;0.50;99.90
54124;DHT22;55741;53.252;5.788;2022-11-20T00:29:25;0.50;99.90
54124;DHT22;55741;53.252;5.788;2022-11-20T00:31:51;0.50;99.90
54124;DHT22;55741;53.252;5.788;2022-11-20T00:34:17;0.50;99.90
54124;DHT22;55741;53.252;5.788;2022-11-20T00:36:43;0.50;99.90
54124;DHT22;55741;53.252;5.788;2022-11-20T00:39:09;0.50;99.90
54124;DHT22;55741;53.252;5.788;2022-11-20T00:41:35;0.50;99.90
54124;DHT22;55741;53.252;5.788;2022-11-20T00:44:01;0.50;99.90
54124;DHT22;55741;53.252;5.788;2022-11-20T00:46:27;0.50;99.90
54124;DHT22;55741;53.252;5.788;2022-11-20T00:48:54;0.50;99.90
54124;DHT22;55741;53.252;5.788;2022-11-20T00:51:22;0.50;99.90
54124;DHT22;55741;53.252;5.788;2022-11-20T00:53:48;0.50;99.90
54124;DHT22;55741;53.252;5.788;2022-11-20T00:56:16;0.50;99.90
54124;DHT22;55741;53.252;5.788;2022-11-20T00:58:44;0.50;99.90
54124;DHT22;55741;53.252;5.788;2022-11-20T01:01:15;0.50;99.90
54124;DHT22;55741;53.252;5.788;2022-11-20T01:03:44;0.50;99.90
54124;DHT22;55741;53.252;5.788;2022-11-20T01:08:38;0.60;99.90
54124;DHT22;55741;53.252;5.788;2022-11-20T01:11:17;0.60;99.90
54124;DHT22;55741;53.252;5.788;2022-11-20T01:13:45;0.60;99.90
54124;DHT22;55741;53.252;5.788;2022-11-20T01:16:14;0.60;99.90
54124;DHT22;55741;53.252;5.788;2022-11-20T01:18:43;0.60;99.90
54124;DHT22;55741;53.252;5.788;2022-11-20T01:21:15;0.60;99.90
54124;DHT22;55741;53.252;5.788;2022-11-20T01:23:43;0.60;99.90
54124;DHT22;55741;53.252;5.788;2022-11-20T01:26:15;0.60;99.90
54124;DHT22;55741;53.252;5.788;2022-11-20T01:28:43;0.60;99.90
54124;DHT22;55741;53.252;5.788;2022-11-20T01:31:31;0.60;99.90
54124;DHT22;55741;53.252;5.788;2022-11-20T01:34:03;0.60;99.90
54124;DHT22;55741;53.252;5.788;2022-11-20T01:36:30;0.50;99.90
54124;DHT22;55741;53.252;5.788;2022-11-20T01:39:02;0.70;99.90
54124;DHT22;55741;53.252;5.788;2022-11-20T01:41:35;0.70;99.90
54124;DHT22;55741;53.252;5.788;2022-11-20T01:44:22;0.60;99.90
54124;DHT22;55741;53.252;5.788;2022-11-20T01:46:58;0.50;99.90
54124;DHT22;55741;53.252;5.788;2022-11-20T01:49:30;0.60;99.90
54124;DHT22;55741;53.252;5.788;2022-11-20T01:52:01;0.60;99.90
54124;DHT22;55741;53.252;5.788;2022-11-20T01:54:36;0.60;99.90
54124;DHT22;55741;53.252;5.788;2022-11-20T01:57:06;0.60;99.90
54124;DHT22;55741;53.252;5.788;2022-11-20T01:59:35;0.50;99.90
54124;DHT22;55741;53.252;5.788;2022-11-20T02:02:07;0.60;99.90
54124;DHT22;55741;53.252;5.788;2022-11-20T02:04:33;0.60;99.90
54124;DHT22;55741;53.252;5.788;2022-11-20T02:07:01;0.60;99.90
54124;DHT22;55741;53.252;5.788;2022-11-20T02:09:28;0.60;99.90
54124;DHT22;55741;53.252;5.788;2022-11-20T02:11:56;0.70;99.90
54124;DHT22;55741;53.252;5.788;2022-11-20T02:14:23;0.60;99.90
54124;DHT22;55741;53.252;5.788;2022-11-20T02:16:50;0.60;99.90
54124;DHT22;55741;53.252;5.788;2022-11-20T02:19:28;0.60;99.90
54124;DHT22;55741;53.252;5.788;2022-11-20T02:22:10;0.60;99.90
54124;DHT22;55741;53.252;5.788;2022-11-20T02:24:38;0.60;99.90
54124;DHT22;55741;53.252;5.788;2022-11-20T02:27:08;0.70;99.90
54124;DHT22;55741;53.252;5.788;2022-11-20T02:29:53;0.60;99.90
54124;DHT22;55741;53.252;5.788;2022-11-20T02:32:25;0.60;99.90
54124;DHT22;55741;53.252;5.788;2022-11-20T02:34:52;0.60;99.90
54124;DHT22;55741;53.252;5.788;2022-11-20T02:37:19;0.70;99.90
54124;DHT22;55741;53.252;5.788;2022-11-20T02:39:52;0.70;99.90
54124;DHT22;55741;53.252;5.788;2022-11-20T02:42:18;0.70;99.90
54124;DHT22;55741;53.252;5.788;2022-11-20T02:44:44;0.70;99.90
54124;DHT22;55741;53.252;5.788;2022-11-20T02:47:10;0.70;99.90
54124;DHT22;55741;53.252;5.788;2022-11-20T02:49:36;0.90;99.90
54124;DHT22;55741;53.252;5.788;2022-11-20T02:52:02;0.80;99.90
54124;DHT22;55741;53.252;5.788;2022-11-20T02:54:28;0.80;99.90
54124;DHT22;55741;53.252;5.788;2022-11-20T02:56:54;0.80;99.90
54124;DHT22;55741;53.252;5.788;2022-11-20T02:59:20;0.90;99.90
54124;DHT22;55741;53.252;5.788;2022-11-20T03:01:46;0.90;99.90
54124;DHT22;55741;53.252;5.788;2022-11-20T03:04:13;1.00;99.90
54124;DHT22;55741;53.252;5.788;2022-11-20T03:06:39;0.90;99.90
54124;DHT22;55741;53.252;5.788;2022-11-20T03:09:05;0.90;99.90
54124;DHT22;55741;53.252;5.788;2022-11-20T03:11:32;0.90;99.90
54124;DHT22;55741;53.252;5.788;2022-11-20T03:14:02;0.80;99.90
54124;DHT22;55741;53.252;5.788;2022-11-20T03:16:28;0.90;99.90
54124;DHT22;55741;53.252;5.788;2022-11-20T03:18:54;0.90;99.90
54124;DHT22;55741;53.252;5.788;2022-11-20T03:21:20;0.90;99.90
54124;DHT22;55741;53.252;5.788;2022-11-20T03:23:46;0.90;99.90
54124;DHT22;55741;53.252;5.788;2022-11-20T03:26:19;0.90;99.90
54124;DHT22;55741;53.252;5.788;2022-11-20T03:29:04;1.00;99.90
54124;DHT22;55741;53.252;5.788;2022-11-20T03:31:37;0.90;99.90
54124;DHT22;55741;53.252;5.788;2022-11-20T03:34:03;0.90;99.90
54124;DHT22;55741;53.252;5.788;2022-11-20T03:36:30;0.80;99.90
54124;DHT22;55741;53.252;5.788;2022-11-20T03:38:56;0.80;99.90
54124;DHT22;55741;53.252;5.788;2022-11-20T03:41:25;0.80;99.90
54124;DHT22;55741;53.252;5.788;2022-11-20T03:43:57;0.80;99.90
54124;DHT22;55741;53.252;5.788;2022-11-20T03:46:24;0.70;99.90
54124;DHT22;55741;53.252;5.788;2022-11-20T03:48:50;0.70;99.90
54124;DHT22;55741;53.252;5.788;2022-11-20T03:51:19;0.70;99.90
54124;DHT22;55741;53.252;5.788;2022-11-20T03:53:46;0.70;99.90
54124;DHT22;55741;53.252;5.788;2022-11-20T03:56:14;0.70;99.90
54124;DHT22;55741;53.252;5.788;2022-11-20T03:58:41;0.60;99.90
54124;DHT22;55741;53.252;5.788;2022-11-20T04:01:16;0.60;99.90
54124;DHT22;55741;53.252;5.788;2022-11-20T04:03:42;0.60;99.90
54124;DHT22;55741;53.252;5.788;2022-11-20T04:06:33;0.60;99.90
54124;DHT22;55741;53.252;5.788;2022-11-20T04:08:59;0.60;99.90
54124;DHT22;55741;53.252;5.788;2022-11-20T04:11:31;0.50;99.90
54124;DHT22;55741;53.252;5.788;2022-11-20T04:14:03;0.50;99.90
54124;DHT22;55741;53.252;5.788;2022-11-20T04:16:30;0.60;99.90
54124;DHT22;55741;53.252;5.788;2022-11-20T04:18:58;0.50;99.90
54124;DHT22;55741;53.252;5.788;2022-11-20T04:21:24;0.50;99.90
54124;DHT22;55741;53.252;5.788;2022-11-20T04:24:10;0.50;99.90
54124;DHT22;55741;53.252;5.788;2022-11-20T04:26:37;0.50;99.90
54124;DHT22;55741;53.252;5.788;2022-11-20T04:29:03;0.60;99.90
54124;DHT22;55741;53.252;5.788;2022-11-20T04:31:31;0.50;99.90
54124;DHT22;55741;53.252;5.788;2022-11-20T04:34:06;0.40;99.90
54124;DHT22;55741;53.252;5.788;2022-11-20T04:36:32;0.40;99.90
54124;DHT22;55741;53.252;5.788;2022-11-20T04:39:01;0.40;99.90
54124;DHT22;55741;53.252;5.788;2022-11-20T04:41:32;0.30;99.90
54124;DHT22;55741;53.252;5.788;2022-11-20T04:44:00;0.30;99.90
54124;DHT22;55741;53.252;5.788;2022-11-20T04:46:30;0.30;99.90
54124;DHT22;55741;53.252;5.788;2022-11-20T04:48:56;0.20;99.90
54124;DHT22;55741;53.252;5.788;2022-11-20T04:51:23;0.20;99.90
54124;DHT22;55741;53.252;5.788;2022-11-20T04:53:49;0.10;99.90
54124;DHT22;55741;53.252;5.788;2022-11-20T04:56:14;0.10;99.90
54124;DHT22;55741;53.252;5.788;2022-11-20T04:58:40;0.10;99.90
54124;DHT22;55741;53.252;5.788;2022-11-20T05:01:10;0.10;99.90
54124;DHT22;55741;53.252;5.788;2022-11-20T05:03:38;0.10;99.90
54124;DHT22;55741;53.252;5.788;2022-11-20T05:06:04;0.10;99.90
54124;DHT22;55741;53.252;5.788;2022-11-20T05:08:33;0.10;99.90
54124;DHT22;55741;53.252;5.788;2022-11-20T05:11:06;0.00;99.90
54124;DHT22;55741;53.252;5.788;2022-11-20T05:13:32;0.00;99.90
54124;DHT22;55741;53.252;5.788;2022-11-20T05:18:33;0.00;99.90
54124;DHT22;55741;53.252;5.788;2022-11-20T05:20:59;0.10;99.90
54124;DHT22;55741;53.252;5.788;2022-11-20T05:23:26;0.00;99.90
54124;DHT22;55741;53.252;5.788;2022-11-20T05:25:53;0.00;99.90
54124;DHT22;55741;53.252;5.788;2022-11-20T05:28:19;0.00;99.90
54124;DHT22;55741;53.252;5.788;2022-11-20T05:30:46;0.00;99.90
54124;DHT22;55741;53.252;5.788;2022-11-20T05:33:11;0.00;99.90
54124;DHT22;55741;53.252;5.788;2022-11-20T05:35:38;0.00;99.90
54124;DHT22;55741;53.252;5.788;2022-11-20T05:38:04;-0.10;99.90
54124;DHT22;55741;53.252;5.788;2022-11-20T05:40:29;0.00;99.90
54124;DHT22;55741;53.252;5.788;2022-11-20T05:42:56;0.00;99.90
54124;DHT22;55741;53.252;5.788;2022-11-20T05:45:21;-0.10;99.90
54124;DHT22;55741;53.252;5.788;2022-11-20T05:47:47;-0.20;99.90
54124;DHT22;55741;53.252;5.788;2022-11-20T05:50:13;-0.30;99.90
54124;DHT22;55741;53.252;5.788;2022-11-20T05:52:40;-0.20;99.90
54124;DHT22;55741;53.252;5.788;2022-11-20T05:55:06;-0.20;99.90
54124;DHT22;55741;53.252;5.788;2022-11-20T05:57:32;-0.20;99.90
54124;DHT22;55741;53.252;5.788;2022-11-20T05:59:58;-0.10;99.90
54124;DHT22;55741;53.252;5.788;2022-11-20T06:02:24;-0.10;99.90
54124;DHT22;55741;53.252;5.788;2022-11-20T06:04:50;-0.10;99.90
54124;DHT22;55741;53.252;5.788;2022-11-20T06:07:16;-0.10;99.90
54124;DHT22;55741;53.252;5.788;2022-11-20T06:09:43;-0.10;99.90
54124;DHT22;55741;53.252;5.788;2022-11-20T06:12:09;0.00;99.90
54124;DHT22;55741;53.252;5.788;2022-11-20T06:14:35;-0.10;99.90
54124;DHT22;55741;53.252;5.788;2022-11-20T06:17:01;-0.20;99.90
54124;DHT22;55741;53.252;5.788;2022-11-20T06:19:26;-0.20;99.90
54124;DHT22;55741;53.252;5.788;2022-11-20T06:21:52;-0.30;99.90
54124;DHT22;55741;53.252;5.788;2022-11-20T06:24:18;-0.30;99.90
54124;DHT22;55741;53.252;5.788;2022-11-20T06:26:44;0.00;99.90
54124;DHT22;55741;53.252;5.788;2022-11-20T06:29:10;-0.30;99.90
54124;DHT22;55741;53.252;5.788;2022-11-20T06:31:36;-0.40;99.90
54124;DHT22;55741;53.252;5.788;2022-11-20T06:34:06;-0.40;99.90
54124;DHT22;55741;53.252;5.788;2022-11-20T06:36:32;-0.40;99.90
54124;DHT22;55741;53.252;5.788;2022-11-20T06:38:59;-0.30;99.90
54124;DHT22;55741;53.252;5.788;2022-11-20T06:41:25;-0.40;99.90
54124;DHT22;55741;53.252;5.788;2022-11-20T06:43:51;-0.40;99.90
54124;DHT22;55741;53.252;5.788;2022-11-20T06:46:18;-0.40;99.90
54124;DHT22;55741;53.252;5.788;2022-11-20T06:48:45;-0.30;99.90
54124;DHT22;55741;53.252;5.788;2022-11-20T06:51:12;-0.30;99.90
54124;DHT22;55741;53.252;5.788;2022-11-20T06:53:38;-0.30;99.90
54124;DHT22;55741;53.252;5.788;2022-11-20T06:56:05;-0.30;99.90
54124;DHT22;55741;53.252;5.788;2022-11-20T06:58:33;-0.30;99.90
54124;DHT22;55741;53.252;5.788;2022-11-20T07:01:01;-0.20;99.90
54124;DHT22;55741;53.252;5.788;2022-11-20T07:03:27;-0.30;99.90
54124;DHT22;55741;53.252;5.788;2022-11-20T07:05:57;-0.30;99.90
54124;DHT22;55741;53.252;5.788;2022-11-20T07:08:23;-0.20;99.90
54124;DHT22;55741;53.252;5.788;2022-11-20T07:10:51;-0.20;99.90
54124;DHT22;55741;53.252;5.788;2022-11-20T07:13:17;-0.20;99.90
54124;DHT22;55741;53.252;5.788;2022-11-20T07:15:43;-0.10;99.90
54124;DHT22;55741;53.252;5.788;2022-11-20T07:18:08;-0.10;99.90
54124;DHT22;55741;53.252;5.788;2022-11-20T07:20:34;-0.10;99.90
54124;DHT22;55741;53.252;5.788;2022-11-20T07:23:00;-0.10;99.90
54124;DHT22;55741;53.252;5.788;2022-11-20T07:25:27;-0.10;99.90
54124;DHT22;55741;53.252;5.788;2022-11-20T07:27:57;0.00;99.90
54124;DHT22;55741;53.252;5.788;2022-11-20T07:30:23;0.10;99.90
54124;DHT22;55741;53.252;5.788;2022-11-20T07:32:53;0.10;99.90
54124;DHT22;55741;53.252;5.788;2022-11-20T07:35:21;0.20;99.90
54124;DHT22;55741;53.252;5.788;2022-11-20T07:37:47;0.20;99.90
54124;DHT22;55741;53.252;5.788;2022-11-20T07:40:15;0.20;99.90
54124;DHT22;55741;53.252;5.788;2022-11-20T07:42:51;0.30;99.90
54124;DHT22;55741;53.252;5.788;2022-11-20T07:45:21;0.30;99.90
54124;DHT22;55741;53.252;5.788;2022-11-20T07:47:47;0.30;99.90
54124;DHT22;55741;53.252;5.788;2022-11-20T07:50:14;0.40;99.90
54124;DHT22;55741;53.252;5.788;2022-11-20T07:52:40;0.40;99.90
54124;DHT22;55741;53.252;5.788;2022-11-20T07:55:07;0.40;99.90
54124;DHT22;55741;53.252;5.788;2022-11-20T07:57:34;0.40;99.90
54124;DHT22;55741;53.252;5.788;2022-11-20T07:59:59;0.40;99.90
54124;DHT22;55741;53.252;5.788;2022-11-20T08:02:26;0.40;99.90
54124;DHT22;55741;53.252;5.788;2022-11-20T08:04:52;0.50;99.90
54124;DHT22;55741;53.252;5.788;2022-11-20T08:07:18;0.50;99.90
54124;DHT22;55741;53.252;5.788;2022-11-20T08:09:44;0.50;99.90
54124;DHT22;55741;53.252;5.788;2022-11-20T08:12:19;0.50;99.90
54124;DHT22;55741;53.252;5.788;2022-11-20T08:15:04;0.50;99.90
54124;DHT22;55741;53.252;5.788;2022-11-20T08:17:31;0.60;99.90
54124;DHT22;55741;53.252;5.788;2022-11-20T08:19:57;0.60;99.90
54124;DHT22;55741;53.252;5.788;2022-11-20T08:22:23;0.60;99.90
54124;DHT22;55741;53.252;5.788;2022-11-20T08:24:50;0.60;99.90
54124;DHT22;55741;53.252;5.788;2022-11-20T08:27:16;0.70;99.90
54124;DHT22;55741;53.252;5.788;2022-11-20T08:29:42;0.70;99.90
54124;DHT22;55741;53.252;5.788;2022-11-20T08:32:08;0.80;99.90
54124;DHT22;55741;53.252;5.788;2022-11-20T08:34:34;0.90;99.90
54124;DHT22;55741;53.252;5.788;2022-11-20T08:37:02;0.80;99.90
54124;DHT22;55741;53.252;5.788;2022-11-20T08:39:31;0.90;99.90
54124;DHT22;55741;53.252;5.788;2022-11-20T08:41:57;0.90;99.90
54124;DHT22;55741;53.252;5.788;2022-11-20T08:44:23;1.00;99.90
54124;DHT22;55741;53.252;5.788;2022-11-20T08:46:49;1.00;99.90
54124;DHT22;55741;53.252;5.788;2022-11-20T08:49:16;1.10;99.90
54124;DHT22;55741;53.252;5.788;2022-11-20T08:51:43;1.10;99.90
54124;DHT22;55741;53.252;5.788;2022-11-20T08:54:10;1.20;99.90
54124;DHT22;55741;53.252;5.788;2022-11-20T08:56:35;1.20;99.90
54124;DHT22;55741;53.252;5.788;2022-11-20T08:59:01;1.30;99.90
54124;DHT22;55741;53.252;5.788;2022-11-20T09:01:28;1.30;99.90
54124;DHT22;55741;53.252;5.788;2022-11-20T09:03:55;1.40;99.90
54124;DHT22;55741;53.252;5.788;2022-11-20T09:06:22;1.50;99.90
54124;DHT22;55741;53.252;5.788;2022-11-20T09:08:52;1.50;99.90
54124;DHT22;55741;53.252;5.788;2022-11-20T09:11:18;1.50;99.90
54124;DHT22;55741;53.252;5.788;2022-11-20T09:13:46;1.60;99.90
54124;DHT22;55741;53.252;5.788;2022-11-20T09:16:12;1.70;99.90
54124;DHT22;55741;53.252;5.788;2022-11-20T09:18:37;1.70;99.90
54124;DHT22;55741;53.252;5.788;2022-11-20T09:21:10;1.80;99.90
54124;DHT22;55741;53.252;5.788;2022-11-20T09:23:38;1.80;99.90
54124;DHT22;55741;53.252;5.788;2022-11-20T09:26:10;1.80;99.90
54124;DHT22;55741;53.252;5.788;2022-11-20T09:28:36;1.80;99.90
54124;DHT22;55741;53.252;5.788;2022-11-20T09:31:28;1.80;99.90
54124;DHT22;55741;53.252;5.788;2022-11-20T09:33:54;1.90;99.90
54124;DHT22;55741;53.252;5.788;2022-11-20T09:36:20;1.90;99.90
54124;DHT22;55741;53.252;5.788;2022-11-20T09:38:47;2.00;99.90
54124;DHT22;55741;53.252;5.788;2022-11-20T09:54:53;2.30;99.90
54124;DHT22;55741;53.252;5.788;2022-11-20T09:57:34;2.30;99.90
54124;DHT22;55741;53.252;5.788;2022-11-20T10:00:04;2.40;99.90
54124;DHT22;55741;53.252;5.788;2022-11-20T10:02:37;2.40;99.90
54124;DHT22;55741;53.252;5.788;2022-11-20T10:10:42;2.50;99.90
54124;DHT22;55741;53.252;5.788;2022-11-20T10:13:30;2.60;99.90
54124;DHT22;55741;53.252;5.788;2022-11-20T10:18:57;2.70;99.90
54124;DHT22;55741;53.252;5.788;2022-11-20T10:27:32;3.00;99.90
54124;DHT22;55741;53.252;5.788;2022-11-20T10:32:39;3.00;99.90
54124;DHT22;55741;53.252;5.788;2022-11-20T10:37:42;3.00;99.90
54124;DHT22;55741;53.252;5.788;2022-11-20T10:40:22;3.00;99.90
54124;DHT22;55741;53.252;5.788;2022-11-20T10:42:56;3.10;99.90
54124;DHT22;55741;53.252;5.788;2022-11-20T10:48:14;3.10;99.90
54124;DHT22;55741;53.252;5.788;2022-11-20T10:51:10;3.10;99.90
54124;DHT22;55741;53.252;5.788;2022-11-20T10:56:50;3.20;99.90
54124;DHT22;55741;53.252;5.788;2022-11-20T10:59:32;3.20;99.90
54124;DHT22;55741;53.252;5.788;2022-11-20T11:02:01;3.30;99.90
54124;DHT22;55741;53.252;5.788;2022-11-20T11:04:37;3.30;99.90
54124;DHT22;55741;53.252;5.788;2022-11-20T11:09:40;3.40;99.90
54124;DHT22;55741;53.252;5.788;2022-11-20T11:12:09;3.50;99.90
54124;DHT22;55741;53.252;5.788;2022-11-20T11:14:45;3.50;99.90
54124;DHT22;55741;53.252;5.788;2022-11-20T11:22:54;3.50;99.90
54124;DHT22;55741;53.252;5.788;2022-11-20T11:25:25;3.60;99.90
54124;DHT22;55741;53.252;5.788;2022-11-20T11:27:54;3.60;99.90
54124;DHT22;55741;53.252;5.788;2022-11-20T11:30:22;3.60;99.90
54124;DHT22;55741;53.252;5.788;2022-11-20T11:32:49;3.60;99.90
54124;DHT22;55741;53.252;5.788;2022-11-20T11:35:27;3.60;99.90
54124;DHT22;55741;53.252;5.788;2022-11-20T11:38:05;3.60;99.90
54124;DHT22;55741;53.252;5.788;2022-11-20T11:40:35;3.70;99.90
54124;DHT22;55741;53.252;5.788;2022-11-20T11:43:16;3.70;99.90
54124;DHT22;55741;53.252;5.788;2022-11-20T11:48:41;3.80;99.90
54124;DHT22;55741;53.252;5.788;2022-11-20T11:51:08;3.80;99.90
54124;DHT22;55741;53.252;5.788;2022-11-20T11:53:39;3.90;99.90
54124;DHT22;55741;53.252;5.788;2022-11-20T11:56:10;3.80;99.90
54124;DHT22;55741;53.252;5.788;2022-11-20T11:58:47;3.90;99.90
54124;DHT22;55741;53.252;5.788;2022-11-20T12:01:31;4.00;99.90
54124;DHT22;55741;53.252;5.788;2022-11-20T12:06:30;3.90;99.90
54124;DHT22;55741;53.252;5.788;2022-11-20T12:09:05;3.80;99.90
54124;DHT22;55741;53.252;5.788;2022-11-20T12:14:18;3.70;99.90
54124;DHT22;55741;53.252;5.788;2022-11-20T12:16:50;3.70;99.90
54124;DHT22;55741;53.252;5.788;2022-11-20T12:19:19;3.70;99.90
54124;DHT22;55741;53.252;5.788;2022-11-20T12:30:05;3.80;99.90
54124;DHT22;55741;53.252;5.788;2022-11-20T12:44:43;3.80;99.90
54124;DHT22;55741;53.252;5.788;2022-11-20T12:50:31;3.70;99.90
54124;DHT22;55741;53.252;5.788;2022-11-20T12:53:10;3.70;99.90
54124;DHT22;55741;53.252;5.788;2022-11-20T13:01:12;3.70;99.90
54124;DHT22;55741;53.252;5.788;2022-11-20T13:06:58;3.70;99.90
54124;DHT22;55741;53.252;5.788;2022-11-20T13:09:24;3.60;99.90
54124;DHT22;55741;53.252;5.788;2022-11-20T13:20:13;3.50;99.90
54124;DHT22;55741;53.252;5.788;2022-11-20T13:22:54;3.50;99.90
54124;DHT22;55741;53.252;5.788;2022-11-20T13:25:38;3.50;99.90
54124;DHT22;55741;53.252;5.788;2022-11-20T13:28:27;3.50;99.90
54124;DHT22;55741;53.252;5.788;2022-11-20T13:30:55;3.50;99.90
54124;DHT22;55741;53.252;5.788;2022-11-20T13:33:30;3.50;99.90
54124;DHT22;55741;53.252;5.788;2022-11-20T13:36:24;3.50;99.90
54124;DHT22;55741;53.252;5.788;2022-11-20T13:38:53;3.50;99.90
54124;DHT22;55741;53.252;5.788;2022-11-20T13:44:23;3.50;99.90
54124;DHT22;55741;53.252;5.788;2022-11-20T13:46:50;3.50;99.90
54124;DHT22;55741;53.252;5.788;2022-11-20T13:51:49;3.40;99.90
54124;DHT22;55741;53.252;5.788;2022-11-20T14:00:16;3.30;99.90
54124;DHT22;55741;53.252;5.788;2022-11-20T14:02:43;3.20;99.90
54124;DHT22;55741;53.252;5.788;2022-11-20T14:05:21;3.20;99.90
54124;DHT22;55741;53.252;5.788;2022-11-20T14:07:49;3.10;99.90
54124;DHT22;55741;53.252;5.788;2022-11-20T14:10:28;3.10;99.90
54124;DHT22;55741;53.252;5.788;2022-11-20T14:12:55;3.10;99.90
54124;DHT22;55741;53.252;5.788;2022-11-20T14:17:55;3.00;99.90
54124;DHT22;55741;53.252;5.788;2022-11-20T14:20:43;2.90;99.90
54124;DHT22;55741;53.252;5.788;2022-11-20T14:23:10;2.90;99.90
54124;DHT22;55741;53.252;5.788;2022-11-20T14:25:42;2.90;99.90
54124;DHT22;55741;53.252;5.788;2022-11-20T14:28:25;2.90;99.90
54124;DHT22;55741;53.252;5.788;2022-11-20T14:30:52;2.90;99.90
54124;DHT22;55741;53.252;5.788;2022-11-20T14:33:19;2.80;99.90
54124;DHT22;55741;53.252;5.788;2022-11-20T14:35:47;2.90;99.90
54124;DHT22;55741;53.252;5.788;2022-11-20T14:38:17;2.80;99.90
54124;DHT22;55741;53.252;5.788;2022-11-20T14:40:44;2.80;99.90
54124;DHT22;55741;53.252;5.788;2022-11-20T14:43:27;2.80;99.90
54124;DHT22;55741;53.252;5.788;2022-11-20T14:45:59;2.80;99.90
54124;DHT22;55741;53.252;5.788;2022-11-20T14:51:34;2.80;99.90
54124;DHT22;55741;53.252;5.788;2022-11-20T14:54:10;2.80;99.90
54124;DHT22;55741;53.252;5.788;2022-11-20T14:56:36;2.80;99.90
54124;DHT22;55741;53.252;5.788;2022-11-20T14:59:02;2.80;99.90
54124;DHT22;55741;53.252;5.788;2022-11-20T15:01:30;2.80;99.90
54124;DHT22;55741;53.252;5.788;2022-11-20T15:04:01;2.80;99.90
54124;DHT22;55741;53.252;5.788;2022-11-20T15:06:28;2.80;99.90
54124;DHT22;55741;53.252;5.788;2022-11-20T15:08:54;2.70;99.90
54124;DHT22;55741;53.252;5.788;2022-11-20T15:11:30;2.70;99.90
54124;DHT22;55741;53.252;5.788;2022-11-20T15:13:57;2.70;99.90
54124;DHT22;55741;53.252;5.788;2022-11-20T15:16:24;2.70;99.90
54124;DHT22;55741;53.252;5.788;2022-11-20T15:18:51;2.70;99.90
54124;DHT22;55741;53.252;5.788;2022-11-20T15:21:19;2.70;99.90
54124;DHT22;55741;53.252;5.788;2022-11-20T15:23:47;2.60;99.90
54124;DHT22;55741;53.252;5.788;2022-11-20T15:26:24;2.70;99.90
54124;DHT22;55741;53.252;5.788;2022-11-20T15:28:51;2.60;99.90
54124;DHT22;55741;53.252;5.788;2022-11-20T15:31:21;2.60;99.90
54124;DHT22;55741;53.252;5.788;2022-11-20T15:33:47;2.60;99.90
54124;DHT22;55741;53.252;5.788;2022-11-20T15:36:14;2.60;99.90
54124;DHT22;55741;53.252;5.788;2022-11-20T15:38:40;2.70;99.90
54124;DHT22;55741;53.252;5.788;2022-11-20T15:41:06;2.60;99.90
54124;DHT22;55741;53.252;5.788;2022-11-20T15:43:32;2.60;99.90
54124;DHT22;55741;53.252;5.788;2022-11-20T15:46:17;2.60;99.90
54124;DHT22;55741;53.252;5.788;2022-11-20T15:48:53;2.60;99.90
54124;DHT22;55741;53.252;5.788;2022-11-20T15:51:31;2.60;99.90
54124;DHT22;55741;53.252;5.788;2022-11-20T15:53:59;2.50;99.90
54124;DHT22;55741;53.252;5.788;2022-11-20T15:56:25;2.50;99.90
54124;DHT22;55741;53.252;5.788;2022-11-20T15:58:51;2.50;99.90
54124;DHT22;55741;53.252;5.788;2022-11-20T16:01:19;2.60;99.90
54124;DHT22;55741;53.252;5.788;2022-11-20T16:03:46;2.50;99.90
54124;DHT22;55741;53.252;5.788;2022-11-20T16:06:13;2.60;99.90
54124;DHT22;55741;53.252;5.788;2022-11-20T16:08:39;2.50;99.90
54124;DHT22;55741;53.252;5.788;2022-11-20T16:11:05;2.50;99.90
54124;DHT22;55741;53.252;5.788;2022-11-20T16:13:32;2.50;99.90
54124;DHT22;55741;53.252;5.788;2022-11-20T16:18:51;2.50;99.90
54124;DHT22;55741;53.252;5.788;2022-11-20T16:21:17;2.50;99.90
54124;DHT22;55741;53.252;5.788;2022-11-20T16:23:44;2.50;99.90
54124;DHT22;55741;53.252;5.788;2022-11-20T16:26:15;2.50;99.90
54124;DHT22;55741;53.252;5.788;2022-11-20T16:28:46;2.50;99.90
54124;DHT22;55741;53.252;5.788;2022-11-20T16:31:15;2.50;99.90
54124;DHT22;55741;53.252;5.788;2022-11-20T16:33:51;2.50;99.90
54124;DHT22;55741;53.252;5.788;2022-11-20T16:36:21;2.50;99.90
54124;DHT22;55741;53.252;5.788;2022-11-20T16:38:55;2.40;99.90
54124;DHT22;55741;53.252;5.788;2022-11-20T16:41:22;2.50;99.90
54124;DHT22;55741;53.252;5.788;2022-11-20T16:43:50;2.40;99.90
54124;DHT22;55741;53.252;5.788;2022-11-20T16:46:18;2.40;99.90
54124;DHT22;55741;53.252;5.788;2022-11-20T16:48:51;2.40;99.90
54124;DHT22;55741;53.252;5.788;2022-11-20T16:51:17;2.40;99.90
54124;DHT22;55741;53.252;5.788;2022-11-20T16:53:46;2.40;99.90
54124;DHT22;55741;53.252;5.788;2022-11-20T16:56:13;2.30;99.90
54124;DHT22;55741;53.252;5.788;2022-11-20T16:58:43;2.40;99.90
54124;DHT22;55741;53.252;5.788;2022-11-20T17:01:11;2.40;99.90
54124;DHT22;55741;53.252;5.788;2022-11-20T17:03:50;2.30;99.90
54124;DHT22;55741;53.252;5.788;2022-11-20T17:06:21;2.30;99.90
54124;DHT22;55741;53.252;5.788;2022-11-20T17:08:54;2.30;99.90
54124;DHT22;55741;53.252;5.788;2022-11-20T17:11:20;2.30;99.90
54124;DHT22;55741;53.252;5.788;2022-11-20T17:13:46;2.30;99.90
54124;DHT22;55741;53.252;5.788;2022-11-20T17:16:15;2.30;99.90
54124;DHT22;55741;53.252;5.788;2022-11-20T17:18:42;2.30;99.90
54124;DHT22;55741;53.252;5.788;2022-11-20T17:21:09;2.30;99.90
54124;DHT22;55741;53.252;5.788;2022-11-20T17:23:38;2.30;99.90
54124;DHT22;55741;53.252;5.788;2022-11-20T17:26:08;2.40;99.90
54124;DHT22;55741;53.252;5.788;2022-11-20T17:28:35;2.40;99.90
54124;DHT22;55741;53.252;5.788;2022-11-20T17:31:04;2.40;99.90
54124;DHT22;55741;53.252;5.788;2022-11-20T17:33:39;2.40;99.90
54124;DHT22;55741;53.252;5.788;2022-11-20T17:36:07;2.40;99.90
54124;DHT22;55741;53.252;5.788;2022-11-20T17:38:39;2.30;99.90
54124;DHT22;55741;53.252;5.788;2022-11-20T17:41:08;2.30;99.90
54124;DHT22;55741;53.252;5.788;2022-11-20T17:43:36;2.30;99.90
54124;DHT22;55741;53.252;5.788;2022-11-20T17:48:33;2.30;99.90
54124;DHT22;55741;53.252;5.788;2022-11-20T17:51:04;2.30;99.90
54124;DHT22;55741;53.252;5.788;2022-11-20T17:53:36;2.30;99.90
54124;DHT22;55741;53.252;5.788;2022-11-20T17:56:08;2.30;99.90
54124;DHT22;55741;53.252;5.788;2022-11-20T17:58:53;2.40;99.90
54124;DHT22;55741;53.252;5.788;2022-11-20T18:01:21;2.30;99.90